Window Rock, AZ

2:20 AM MDT on July 13, 2014 (GMT -0600)
Window Rock (KRQE) Elev 6742 ft | 35.66 °N, 109.06 °W | Change Station

Current weather conditions updated 27 minutes ago

Light Rain
Light Rain
66 °F
Feels Like 66 °F
N
7
Wind Variable Wind from WNW

Today is forecast to be nearly the same temperature as yesterday. Isolated thunderstorms.

Today
High -- | Low -- °F
--% Chance of Precip.
Yesterday
High -- | Low -- °F
Precip. -- in
6:10 AM 8:33 PM
Full, 99% visible
Pressure 29.94 in
Visibility 10.0 miles
Clouds Scattered Clouds 9000 ft
Overcast 11000 ft
Dew Point 54 °F
Humidity 65%
Rainfall 0.00 in
Snow Depth Not available.
UV 0 out of 12
Pollen 4.00 out of 12
Air Quality Not available.
Flu Activity Local Activity
METAR KRQE 130753Z AUTO 29006KT 10SM -RA SCT090 OVC110 19/12 A3034 RMK AO2 RAB51 SLP136 P0000 T01890122 TSNO

More Conditions Fewer Conditions

Pressure 29.94 in
Visibility 10.0 miles
Clouds Scattered Clouds 9000 ft
Overcast 11000 ft
Dew Point 54 °F
Humidity 65%
Rainfall 0.00 in
Snow Depth Not available.
UV 0 out of 12
Pollen 4.00 out of 12
Air Quality Not available.
Flu Activity Local Activity
METAR KRQE 130753Z AUTO 29006KT 10SM -RA SCT090 OVC110 19/12 A3034 RMK AO2 RAB51 SLP136 P0000 T01890122 TSNO

More Conditions Fewer Conditions

10-Day Weather Forecast

Almanac

Astronomy

Jul. 13, 2014 Rise Set
Actual Time 6:10 AM MDT 8:33 PM MDT
Civil Twilight 5:41 AM MDT 9:02 PM MDT
Nautical Twilight 5:05 AM MDT 9:38 PM MDT
Astronomical Twilight 4:25 AM MDT 10:18 PM MDT
Moon 9:29 PM MDT 7:40 AM MDT
Length of Visible Light 15h 21m
Length of Day
14h 22m
Tomorrow will be 1m 3s shorter.
Full, 99% of the Moon is Illuminated
Today
Full
Jul 18
Last Quarter
Jul 26
New
Aug 3
First Quarter
Aug 10
Full

Today's Extremes

State Highs State Lows

Community

WunderPhotos

Upload Photos

1,733,143 photos uploaded!

Nearby

Snow Depth

Station Depth Elevation
Maverick Fork 0 in 9200 ft
Heber 0 in 7640 ft
Wildcat 0 in 7850 ft
Beaver Head 1 in 7990 ft
Promontory 0 in 7930 ft

Earthquake Activity

City Distance Mag. Time & Date
No recent earthquake activity has been reported nearby.
Minimum magnitude displayed is 2.5.

Coastal Water Temperatures

Place Temperature
No Stations Reporting

Nearby Weather Stations

There are no personal weather stations in this area.